sensor_id;sensor_type;location;lat;lon;timestamp;pressure;altitude;pressure_sealevel;temperature;humidity
84649;BME280;74877;52.392;16.888;2024-01-15T00:10:11;98491.0;;;0.81;92.56
84649;BME280;74877;52.392;16.888;2024-01-15T00:25:11;98468.0;;;0.75;92.71
84649;BME280;74877;52.392;16.888;2024-01-15T00:40:11;98459.0;;;0.56;93.42
84649;BME280;74877;52.392;16.888;2024-01-15T00:55:11;98438.0;;;0.56;93.39
84649;BME280;74877;52.392;16.888;2024-01-15T01:10:11;98425.0;;;0.56;93.93
84649;BME280;74877;52.392;16.888;2024-01-15T01:25:11;98404.0;;;0.54;93.96
84649;BME280;74877;52.392;16.888;2024-01-15T01:40:11;98374.0;;;0.58;93.26
84649;BME280;74877;52.392;16.888;2024-01-15T01:55:11;98348.0;;;0.63;92.65
84649;BME280;74877;52.392;16.888;2024-01-15T02:10:11;98317.0;;;0.7;91.91
84649;BME280;74877;52.392;16.888;2024-01-15T02:25:11;98308.0;;;0.8;90.47
84649;BME280;74877;52.392;16.888;2024-01-15T02:40:11;98272.0;;;0.82;89.87
84649;BME280;74877;52.392;16.888;2024-01-15T02:55:11;98247.0;;;0.81;89.77
84649;BME280;74877;52.392;16.888;2024-01-15T03:10:11;98233.0;;;0.78;89.8
84649;BME280;74877;52.392;16.888;2024-01-15T03:25:11;98210.0;;;0.55;92.05
84649;BME280;74877;52.392;16.888;2024-01-15T03:40:10;98202.0;;;0.38;93.44
84649;BME280;74877;52.392;16.888;2024-01-15T03:55:10;98192.0;;;0.27;94.61
84649;BME280;74877;52.392;16.888;2024-01-15T04:10:10;98188.0;;;0.32;94.05
84649;BME280;74877;52.392;16.888;2024-01-15T04:25:11;98191.0;;;0.38;93.73
84649;BME280;74877;52.392;16.888;2024-01-15T04:40:10;98185.0;;;0.47;91.9
84649;BME280;74877;52.392;16.888;2024-01-15T04:55:11;98173.0;;;0.58;89.45
84649;BME280;74877;52.392;16.888;2024-01-15T05:10:11;98176.0;;;0.52;90.72
84649;BME280;74877;52.392;16.888;2024-01-15T05:25:10;98183.0;;;0.4;91.48
84649;BME280;74877;52.392;16.888;2024-01-15T05:45:10;98172.0;;;0.41;91.0
84649;BME280;74877;52.392;16.888;2024-01-15T06:00:10;98161.0;;;0.44;87.92
84649;BME280;74877;52.392;16.888;2024-01-15T06:15:10;98141.0;;;0.52;87.33
84649;BME280;74877;52.392;16.888;2024-01-15T06:30:10;98144.0;;;0.54;86.69
84649;BME280;74877;52.392;16.888;2024-01-15T06:45:10;98148.0;;;0.59;86.62
84649;BME280;74877;52.392;16.888;2024-01-15T07:00:10;98157.0;;;0.62;86.22
84649;BME280;74877;52.392;16.888;2024-01-15T07:15:10;98171.0;;;0.66;86.21
84649;BME280;74877;52.392;16.888;2024-01-15T07:40:10;98172.0;;;0.83;84.49
84649;BME280;74877;52.392;16.888;2024-01-15T08:05:10;98153.0;;;0.83;84.46
84649;BME280;74877;52.392;16.888;2024-01-15T08:20:10;98138.0;;;0.83;84.5
84649;BME280;74877;52.392;16.888;2024-01-15T08:35:10;98143.0;;;0.78;86.22
84649;BME280;74877;52.392;16.888;2024-01-15T08:50:10;98135.0;;;0.63;87.02
84649;BME280;74877;52.392;16.888;2024-01-15T09:05:10;98135.0;;;0.77;85.88
84649;BME280;74877;52.392;16.888;2024-01-15T09:20:10;98149.0;;;0.72;87.34
84649;BME280;74877;52.392;16.888;2024-01-15T09:35:10;98173.0;;;0.22;92.4
84649;BME280;74877;52.392;16.888;2024-01-15T09:50:10;98159.0;;;0.51;88.94
84649;BME280;74877;52.392;16.888;2024-01-15T10:05:10;98158.0;;;1.86;82.96
84649;BME280;74877;52.392;16.888;2024-01-15T10:20:10;98161.0;;;1.2;85.34
84649;BME280;74877;52.392;16.888;2024-01-15T10:35:10;98151.0;;;1.2;84.19
84649;BME280;74877;52.392;16.888;2024-01-15T10:50:10;98143.0;;;1.42;83.05
84649;BME280;74877;52.392;16.888;2024-01-15T11:05:10;98144.0;;;1.31;82.72
84649;BME280;74877;52.392;16.888;2024-01-15T11:20:10;98133.0;;;1.69;81.19
84649;BME280;74877;52.392;16.888;2024-01-15T11:35:10;98144.0;;;1.79;79.48
84649;BME280;74877;52.392;16.888;2024-01-15T11:50:10;98120.0;;;1.49;81.33
84649;BME280;74877;52.392;16.888;2024-01-15T12:05:10;98118.0;;;1.44;81.6
84649;BME280;74877;52.392;16.888;2024-01-15T12:25:11;98086.0;;;3.17;76.98
84649;BME280;74877;52.392;16.888;2024-01-15T12:40:11;98104.0;;;3.36;73.06
84649;BME280;74877;52.392;16.888;2024-01-15T12:55:11;98077.0;;;2.49;74.69
84649;BME280;74877;52.392;16.888;2024-01-15T13:10:11;98072.0;;;2.37;75.43
84649;BME280;74877;52.392;16.888;2024-01-15T13:25:11;98054.0;;;2.1;76.76
84649;BME280;74877;52.392;16.888;2024-01-15T13:40:11;98105.0;;;1.79;78.6
84649;BME280;74877;52.392;16.888;2024-01-15T13:55:11;98096.0;;;2.12;75.84
84649;BME280;74877;52.392;16.888;2024-01-15T14:10:11;98114.0;;;1.97;75.94
84649;BME280;74877;52.392;16.888;2024-01-15T14:25:11;98125.0;;;1.83;76.34
84649;BME280;74877;52.392;16.888;2024-01-15T14:45:10;98184.0;;;1.81;76.47
84649;BME280;74877;52.392;16.888;2024-01-15T15:00:10;98222.0;;;0.01;91.54
84649;BME280;74877;52.392;16.888;2024-01-15T15:15:10;98253.0;;;-0.11;90.9
84649;BME280;74877;52.392;16.888;2024-01-15T15:30:10;98281.0;;;-0.06;89.62
84649;BME280;74877;52.392;16.888;2024-01-15T15:45:10;98308.0;;;0.01;87.68
84649;BME280;74877;52.392;16.888;2024-01-15T16:00:10;98335.0;;;-0.09;85.56
84649;BME280;74877;52.392;16.888;2024-01-15T16:15:10;98357.0;;;-0.2;83.95
84649;BME280;74877;52.392;16.888;2024-01-15T16:30:10;98355.0;;;-0.31;82.04
84649;BME280;74877;52.392;16.888;2024-01-15T16:45:10;98370.0;;;-0.33;82.33
84649;BME280;74877;52.392;16.888;2024-01-15T17:00:10;98407.0;;;-0.38;81.96
84649;BME280;74877;52.392;16.888;2024-01-15T17:15:10;98442.0;;;-0.42;79.68
84649;BME280;74877;52.392;16.888;2024-01-15T17:30:10;98479.0;;;-0.39;77.4
84649;BME280;74877;52.392;16.888;2024-01-15T17:45:10;98506.0;;;-0.38;75.04
84649;BME280;74877;52.392;16.888;2024-01-15T18:00:10;98541.0;;;-0.55;72.88
84649;BME280;74877;52.392;16.888;2024-01-15T18:15:10;98556.0;;;-0.69;72.41
84649;BME280;74877;52.392;16.888;2024-01-15T18:35:11;98584.0;;;-0.73;71.2
84649;BME280;74877;52.392;16.888;2024-01-15T18:50:11;98614.0;;;-0.95;70.91
84649;BME280;74877;52.392;16.888;2024-01-15T19:05:11;98649.0;;;-1.06;69.43
84649;BME280;74877;52.392;16.888;2024-01-15T19:20:11;98650.0;;;-1.29;69.22
84649;BME280;74877;52.392;16.888;2024-01-15T19:35:11;98675.0;;;-1.37;69.65
84649;BME280;74877;52.392;16.888;2024-01-15T19:50:11;98710.0;;;-1.28;69.36
84649;BME280;74877;52.392;16.888;2024-01-15T20:05:11;98734.0;;;-1.17;67.83
84649;BME280;74877;52.392;16.888;2024-01-15T20:20:11;98755.0;;;-1.11;67.87
84649;BME280;74877;52.392;16.888;2024-01-15T20:35:11;98782.0;;;-1.11;68.61
84649;BME280;74877;52.392;16.888;2024-01-15T20:50:11;98804.0;;;-1.08;68.39
84649;BME280;74877;52.392;16.888;2024-01-15T21:05:11;98829.0;;;-1.07;68.62
84649;BME280;74877;52.392;16.888;2024-01-15T21:20:11;98851.0;;;-1.08;69.05
84649;BME280;74877;52.392;16.888;2024-01-15T21:35:11;98868.0;;;-1.13;70.32
84649;BME280;74877;52.392;16.888;2024-01-15T21:50:11;98893.0;;;-1.15;70.81
84649;BME280;74877;52.392;16.888;2024-01-15T22:05:11;98908.0;;;-1.23;71.62
84649;BME280;74877;52.392;16.888;2024-01-15T22:20:11;98927.0;;;-1.35;72.22
84649;BME280;74877;52.392;16.888;2024-01-15T22:35:11;98937.0;;;-1.37;68.57
84649;BME280;74877;52.392;16.888;2024-01-15T22:50:11;98958.0;;;-1.45;69.07
84649;BME280;74877;52.392;16.888;2024-01-15T23:05:11;98977.0;;;-1.58;69.87
84649;BME280;74877;52.392;16.888;2024-01-15T23:20:10;99000.0;;;-1.74;71.05
84649;BME280;74877;52.392;16.888;2024-01-15T23:35:10;99019.0;;;-1.79;70.7
